Startpagina
METAR-TAF:

METAR-TAF

Vliegvelden :

Pápa, Hongarije

breedte: 47-12N, lengte: 017-30E, hoogte: 145 m

Actueel weer

Dit bericht is 38 minuten geleden gemaakt, om 13:45 UTC
Wind 2 kt uit het zuidoosten
Temperatuur 30°C
Vochtigheid 40%
Druk 1018 hPa
Zicht 10 km of meer
Verspreide wolken op 6700 ft, Stapelwolken.

METAR: LHPA 181345Z 13002KT 9999 SCT067TCU 30/15 Q1018 NOSIG RMK BLU

Tijdstip: 16:23 (14:23 UTC)

Verwachting

Dit bericht is 3 uur en het 8 minuten geleden gemaakt, om 11:15 UTC
Verwachting geldig van 18 om 12 UTC tot 19 om 12 UTC
Wind 4 kt uit variabele richting
Zicht 10 km of meer
geen wolken onder 1500 m en geen cumulonimbus
Tijdelijke
van 18 om 12 UTC tot 18 om 16 UTC
Zicht 10 km of meer
Weinig wolken op 5000 ft, Stapelwolken.

TAF: LHPA 181115Z 1812/1912 VRB04KT CAVOK TEMPO 1812/1816 9999 FEW050TCU

Waarnemingen en weersverwachtingen van meer dan 4000 vliegvelden (METAR en TAF).

De beschikbare stations zijn de gele en rode punten op de kaart.

Ga met uw muis naar het station om de naam te zien.

Klik dan om waarnemingen en weersverwachtingen te zien.

kaart wijzigen: klik op de groene knoppen met een zwart kruis om in te zoomen, op de groene knop met een streepje om uit te zoomen of op de groene pijlen voor aangrenzende kaarten.


METAR-TAF: